Time;durP1;ratioP1;P1;durP2;ratioP2;P2;SDS_P1;SDS_P2;PMS_P1;PMS_P2;Temp;Humidity;BMP_temperature;BMP_pressure;BME280_temperature;BME280_humidity;BME280_pressure;Samples;Min_cycle;Max_cycle;Signal;HPM_P1;HPM_P2
2021/06/13 00:01:34;;;;;;;2.42;1.80;;;23.10;52.60;;;;;;5011574;28;20389;-65
2021/06/13 00:04:00;;;;;;;1.92;1.73;;;23.10;52.70;;;;;;5011436;28;20425;-65
2021/06/13 00:06:25;;;;;;;1.90;1.70;;;23.10;52.70;;;;;;5011584;28;20920;-65
2021/06/13 00:08:51;;;;;;;1.95;1.75;;;23.10;52.70;;;;;;5011110;28;20404;-65
2021/06/13 00:11:17;;;;;;;2.10;1.90;;;23.10;52.80;;;;;;5011339;28;20396;-65
2021/06/13 00:13:44;;;;;;;2.53;1.83;;;23.10;52.80;;;;;;5011492;28;20478;-65
2021/06/13 00:16:10;;;;;;;1.83;1.63;;;23.10;52.80;;;;;;5011558;28;20389;-65
2021/06/13 00:18:36;;;;;;;1.90;1.60;;;23.10;52.80;;;;;;5011795;28;20427;-65
2021/06/13 00:21:02;;;;;;;2.13;1.67;;;23.10;52.80;;;;;;5011724;28;20392;-65
2021/06/13 00:23:29;;;;;;;2.10;1.85;;;23.10;52.80;;;;;;5010892;28;20421;-65
2021/06/13 00:25:54;;;;;;;2.60;1.90;;;23.10;52.80;;;;;;5011534;28;20405;-65
2021/06/13 00:28:20;;;;;;;2.27;1.70;;;23.00;52.80;;;;;;5011487;28;20396;-65
2021/06/13 00:30:46;;;;;;;1.90;1.65;;;23.00;52.80;;;;;;5011447;28;20396;-65
2021/06/13 00:33:12;;;;;;;2.00;1.80;;;23.00;52.70;;;;;;5011242;28;20401;-65
2021/06/13 00:35:38;;;;;;;2.10;1.85;;;23.10;52.80;;;;;;5011335;28;20423;-66
2021/06/13 00:38:06;;;;;;;2.63;1.70;;;23.00;52.80;;;;;;5009759;28;20397;-65
2021/06/13 00:40:32;;;;;;;1.95;1.75;;;23.10;52.90;;;;;;5011077;28;20392;-65
2021/06/13 00:42:57;;;;;;;2.05;1.70;;;23.00;52.80;;;;;;5009976;28;20890;-65
2021/06/13 00:45:24;;;;;;;1.80;1.70;;;23.00;52.80;;;;;;5010675;28;20412;-65
2021/06/13 00:47:50;;;;;;;2.40;1.63;;;23.00;52.80;;;;;;5011488;28;20401;-65
2021/06/13 00:50:28;;;;;;;1.92;1.73;;;23.00;52.80;;;;;;5009721;28;20393;-65
2021/06/13 00:52:54;;;;;;;1.83;1.60;;;23.00;52.80;;;;;;5011272;28;20380;-65
2021/06/13 00:55:20;;;;;;;1.60;1.50;;;23.00;52.90;;;;;;5011076;28;20416;-66
2021/06/13 00:57:45;;;;;;;2.17;1.70;;;23.00;52.80;;;;;;5010961;28;20404;-66
2021/06/13 01:00:12;;;;;;;2.10;1.63;;;23.00;52.80;;;;;;5010924;28;20452;-65
2021/06/13 01:02:37;;;;;;;2.75;1.80;;;23.00;52.80;;;;;;5011022;28;20411;-66
2021/06/13 01:05:05;;;;;;;1.92;1.73;;;23.00;52.80;;;;;;5011228;28;20404;-66
2021/06/13 01:07:57;;;;;;;1.85;1.65;;;23.00;52.80;;;;;;5010673;28;20396;-65
2021/06/13 01:10:43;;;;;;;2.00;1.63;;;23.00;52.80;;;;;;5011147;28;20491;-66
2021/06/13 01:13:49;;;;;;;1.90;1.70;;;23.00;52.80;;;;;;5010619;28;20404;-65
2021/06/13 01:16:30;;;;;;;2.05;1.80;;;23.00;52.80;;;;;;5013158;28;20419;-66
2021/06/13 01:19:10;;;;;;;2.03;1.80;;;23.00;52.80;;;;;;5014377;28;20408;-66
2021/06/13 01:21:48;;;;;;;2.00;1.60;;;23.00;52.80;;;;;;5014062;28;20397;-65
2021/06/13 01:24:32;;;;;;;1.73;1.63;;;23.00;52.90;;;;;;5013461;28;20424;-65
2021/06/13 01:27:27;;;;;;;2.30;1.90;;;23.00;52.90;;;;;;5014463;28;20435;-65
2021/06/13 01:29:53;;;;;;;1.88;1.67;;;23.00;52.90;;;;;;5014420;28;20399;-65
2021/06/13 01:32:27;;;;;;;1.88;1.73;;;23.00;52.80;;;;;;5014241;28;20389;-65
2021/06/13 01:34:57;;;;;;;2.10;1.80;;;22.90;52.80;;;;;;5014298;28;20407;-65
2021/06/13 01:37:25;;;;;;;2.03;1.83;;;23.00;52.80;;;;;;5013912;28;20865;-65
2021/06/13 01:39:57;;;;;;;1.90;1.70;;;23.00;52.80;;;;;;5014144;28;20403;-65
2021/06/13 01:42:23;;;;;;;2.00;1.80;;;23.00;52.90;;;;;;5012709;28;20395;-65
2021/06/13 01:44:55;;;;;;;2.10;1.85;;;23.00;52.80;;;;;;5013968;28;20881;-65
2021/06/13 01:47:22;;;;;;;2.28;1.75;;;23.00;52.90;;;;;;5013816;28;21014;-65
2021/06/13 01:49:48;;;;;;;2.00;1.80;;;23.00;52.90;;;;;;5013975;28;20452;-65
2021/06/13 01:52:14;;;;;;;2.15;1.95;;;23.00;52.90;;;;;;5013906;28;20393;-65
2021/06/13 01:54:41;;;;;;;3.20;2.00;;;23.00;52.90;;;;;;5013341;28;20424;-65
2021/06/13 01:57:08;;;;;;;2.47;1.83;;;22.90;52.80;;;;;;5013462;28;20393;-66
2021/06/13 01:59:34;;;;;;;2.05;1.85;;;22.90;52.80;;;;;;5013241;28;20397;-65
2021/06/13 02:02:03;;;;;;;2.05;1.70;;;22.90;52.80;;;;;;5013948;28;20393;-65
2021/06/13 02:04:30;;;;;;;2.47;1.75;;;22.90;52.80;;;;;;5013574;28;20416;-65
2021/06/13 02:06:58;;;;;;;1.90;1.70;;;22.90;52.80;;;;;;5013639;28;20400;-66
2021/06/13 02:09:28;;;;;;;2.30;1.90;;;22.90;52.80;;;;;;5013103;28;20476;-65
2021/06/13 02:11:56;;;;;;;2.10;1.88;;;22.90;52.90;;;;;;5013639;28;20381;-65
2021/06/13 02:14:24;;;;;;;2.17;1.70;;;22.90;52.90;;;;;;5012308;28;20760;-65
2021/06/13 02:16:51;;;;;;;2.00;1.80;;;22.90;52.80;;;;;;5013511;28;20396;-65
2021/06/13 02:19:20;;;;;;;2.20;2.00;;;22.90;52.90;;;;;;5013219;28;20395;-65
2021/06/13 02:21:48;;;;;;;2.35;2.00;;;22.90;52.90;;;;;;5013172;28;20499;-65
2021/06/13 02:24:17;;;;;;;2.10;1.90;;;22.90;52.80;;;;;;5012039;28;20433;-65
2021/06/13 02:26:44;;;;;;;2.08;1.88;;;22.90;52.80;;;;;;5011892;28;20483;-65
2021/06/13 02:29:11;;;;;;;2.20;2.00;;;22.90;52.80;;;;;;5013252;28;20399;-65
2021/06/13 02:31:40;;;;;;;2.30;2.10;;;22.90;52.80;;;;;;5012768;28;20389;-65
2021/06/13 02:34:08;;;;;;;2.20;2.00;;;22.90;52.90;;;;;;5013273;28;20392;-65
2021/06/13 02:36:35;;;;;;;2.28;2.08;;;22.90;52.90;;;;;;5013124;28;20472;-65
2021/06/13 02:39:02;;;;;;;2.72;2.00;;;22.90;52.90;;;;;;5012455;28;20389;-65
2021/06/13 02:41:28;;;;;;;2.60;1.90;;;22.90;53.50;;;;;;5011472;28;20485;-65
2021/06/13 02:43:54;;;;;;;2.10;1.90;;;22.90;52.90;;;;;;5012751;28;20499;-64
2021/06/13 02:46:20;;;;;;;2.17;1.97;;;22.90;52.90;;;;;;5012869;28;20396;-65
2021/06/13 02:48:45;;;;;;;2.28;2.00;;;22.90;52.80;;;;;;5012920;28;20416;-65
2021/06/13 02:51:14;;;;;;;2.10;1.90;;;22.90;52.90;;;;;;5012776;28;20881;-65
2021/06/13 02:53:42;;;;;;;2.22;2.03;;;22.90;52.90;;;;;;5012374;28;20443;-65
2021/06/13 02:56:23;;;;;;;2.05;1.85;;;22.90;52.80;;;;;;5012693;28;20393;-65
2021/06/13 02:59:02;;;;;;;2.13;1.92;;;22.90;52.80;;;;;;5012714;28;20389;-65
2021/06/13 03:01:29;;;;;;;2.40;2.20;;;22.90;52.90;;;;;;5012461;28;20447;-64
2021/06/13 03:03:58;;;;;;;2.13;1.92;;;22.90;52.90;;;;;;5012560;28;20448;-65
2021/06/13 03:06:24;;;;;;;2.30;2.03;;;22.90;52.80;;;;;;5012551;28;20413;-65
2021/06/13 03:08:50;;;;;;;2.20;2.00;;;22.90;52.80;;;;;;5012277;28;20432;-65
2021/06/13 03:11:19;;;;;;;2.30;2.00;;;22.90;52.90;;;;;;5010561;28;20894;-64
2021/06/13 03:13:47;;;;;;;2.42;2.20;;;22.80;52.80;;;;;;5011929;28;20425;-65
2021/06/13 03:16:14;;;;;;;2.47;2.15;;;22.80;52.80;;;;;;5011080;28;20389;-65
2021/06/13 03:18:42;;;;;;;2.30;2.00;;;22.80;52.80;;;;;;5012368;28;20415;-66
2021/06/13 03:21:10;;;;;;;2.47;2.10;;;22.80;52.80;;;;;;5012277;28;20423;-65
2021/06/13 03:23:36;;;;;;;2.30;2.10;;;22.80;52.80;;;;;;5011813;28;20912;-65
2021/06/13 03:26:02;;;;;;;2.08;1.88;;;22.80;52.80;;;;;;5011010;28;20499;-65
2021/06/13 03:28:32;;;;;;;2.40;2.20;;;22.80;52.80;;;;;;5012034;28;20527;-65
2021/06/13 03:30:59;;;;;;;2.78;2.17;;;22.80;52.90;;;;;;5012187;28;20388;-65
2021/06/13 03:33:27;;;;;;;2.40;2.20;;;22.80;52.90;;;;;;5010662;28;20412;-65
2021/06/13 03:35:54;;;;;;;2.38;2.17;;;22.80;52.90;;;;;;5011809;28;20396;-65
2021/06/13 03:38:21;;;;;;;2.60;2.27;;;22.80;52.80;;;;;;5010273;28;20983;-65
2021/06/13 03:40:48;;;;;;;2.92;2.30;;;22.80;52.90;;;;;;5012137;28;20389;-65
2021/06/13 03:43:14;;;;;;;2.20;2.00;;;22.80;52.90;;;;;;5011904;28;20408;-66
2021/06/13 03:45:41;;;;;;;2.40;2.20;;;22.80;52.90;;;;;;5011358;28;20484;-65
2021/06/13 03:48:08;;;;;;;2.30;2.10;;;22.80;52.80;;;;;;5011874;28;20397;-66
2021/06/13 03:50:34;;;;;;;2.50;2.30;;;22.80;52.80;;;;;;5011969;28;20455;-66
2021/06/13 03:53:02;;;;;;;2.30;2.10;;;22.80;52.80;;;;;;5010659;28;20401;-65
2021/06/13 03:55:30;;;;;;;2.60;2.40;;;22.80;52.80;;;;;;5010856;28;20397;-65
2021/06/13 03:57:57;;;;;;;2.65;2.15;;;22.80;52.90;;;;;;5011643;28;20389;-65
2021/06/13 04:00:25;;;;;;;2.42;2.20;;;22.80;52.80;;;;;;5011762;28;20392;-65
2021/06/13 04:02:51;;;;;;;2.40;2.20;;;22.80;52.80;;;;;;5011647;28;20793;-65
2021/06/13 04:05:19;;;;;;;2.50;2.30;;;22.80;52.80;;;;;;5010435;28;20412;-65
2021/06/13 04:07:45;;;;;;;2.77;2.43;;;22.80;52.80;;;;;;5011503;28;20444;-65
2021/06/13 04:10:13;;;;;;;2.85;2.28;;;22.80;52.80;;;;;;5011470;28;20400;-65
2021/06/13 04:12:40;;;;;;;2.53;2.33;;;22.80;52.80;;;;;;5011718;28;20384;-65
2021/06/13 04:15:08;;;;;;;2.40;2.20;;;22.80;52.90;;;;;;5011781;28;20405;-65
2021/06/13 04:17:34;;;;;;;2.40;2.20;;;22.80;52.80;;;;;;5011485;28;20423;-66
2021/06/13 04:20:05;;;;;;;2.50;2.30;;;22.80;52.90;;;;;;5011694;28;20405;-66
2021/06/13 04:22:31;;;;;;;2.55;2.35;;;22.80;52.90;;;;;;5011577;28;20445;-65
2021/06/13 04:24:59;;;;;;;2.50;2.30;;;22.70;52.80;;;;;;5010367;28;20443;-65
2021/06/13 04:27:26;;;;;;;2.50;2.30;;;22.80;52.80;;;;;;5011401;28;20385;-65
2021/06/13 04:29:52;;;;;;;2.50;2.30;;;22.80;52.80;;;;;;5011443;28;20393;-65
2021/06/13 04:32:18;;;;;;;2.30;2.10;;;22.80;52.90;;;;;;5011522;28;20400;-65
2021/06/13 04:34:44;;;;;;;2.78;2.40;;;22.80;52.80;;;;;;5011556;28;20409;-65
2021/06/13 04:37:10;;;;;;;2.55;2.35;;;22.80;52.90;;;;;;5009909;28;20393;-65
2021/06/13 04:39:37;;;;;;;2.40;2.20;;;22.80;52.90;;;;;;5009813;28;20423;-65
2021/06/13 04:42:06;;;;;;;2.30;2.10;;;22.70;52.80;;;;;;5010641;28;20943;-65
2021/06/13 04:44:31;;;;;;;2.70;2.50;;;22.70;52.80;;;;;;5010890;28;20448;-65
2021/06/13 04:46:57;;;;;;;2.67;2.45;;;22.70;52.80;;;;;;5011274;28;20389;-65
2021/06/13 04:49:23;;;;;;;2.53;2.33;;;22.70;52.80;;;;;;5010933;28;20389;-65
2021/06/13 04:51:56;;;;;;;2.83;2.45;;;22.70;52.80;;;;;;5014576;28;20889;-65
2021/06/13 04:54:30;;;;;;;2.47;2.28;;;22.70;52.80;;;;;;5014925;28;20393;-65
2021/06/13 04:57:23;;;;;;;3.03;2.72;;;22.70;52.80;;;;;;5014244;28;20404;-65
2021/06/13 04:59:49;;;;;;;2.70;2.50;;;22.70;52.80;;;;;;5014812;28;20431;-65
2021/06/13 05:02:15;;;;;;;2.90;2.53;;;22.70;52.80;;;;;;5014981;28;20392;-65
2021/06/13 05:04:41;;;;;;;2.70;2.50;;;22.70;52.80;;;;;;5014813;28;20912;-65
2021/06/13 05:07:07;;;;;;;2.80;2.50;;;22.70;52.80;;;;;;5014822;28;20404;-65
2021/06/13 05:09:33;;;;;;;3.27;2.50;;;22.70;52.80;;;;;;5013267;28;20781;-65
2021/06/13 05:11:59;;;;;;;2.60;2.40;;;22.70;52.80;;;;;;5014341;28;20515;-65
2021/06/13 05:14:24;;;;;;;2.63;2.42;;;22.70;52.80;;;;;;5014688;28;20475;-65
2021/06/13 05:16:50;;;;;;;2.80;2.50;;;22.70;52.80;;;;;;5014673;28;20389;-65
2021/06/13 05:19:16;;;;;;;2.80;2.60;;;22.70;52.80;;;;;;5014628;28;20393;-65
2021/06/13 05:21:41;;;;;;;2.97;2.67;;;22.70;52.80;;;;;;5014098;28;20389;-65
2021/06/13 05:24:08;;;;;;;2.80;2.60;;;22.70;52.70;;;;;;5014421;28;20443;-65
2021/06/13 05:26:34;;;;;;;2.60;2.40;;;22.70;52.80;;;;;;5014510;28;20440;-65
2021/06/13 05:28:59;;;;;;;3.80;2.83;;;22.70;52.80;;;;;;5014491;28;20397;-65
2021/06/13 05:31:25;;;;;;;2.70;2.50;;;22.70;52.80;;;;;;5014182;28;20495;-65
2021/06/13 05:33:52;;;;;;;2.55;2.35;;;22.70;52.80;;;;;;5012977;28;20401;-65
2021/06/13 05:36:18;;;;;;;3.13;2.60;;;22.70;52.80;;;;;;5014167;28;20777;-65
2021/06/13 05:38:44;;;;;;;3.15;2.80;;;22.70;52.80;;;;;;5014336;28;20397;-65
2021/06/13 05:41:12;;;;;;;3.58;2.78;;;22.70;52.80;;;;;;5014242;28;20480;-65
2021/06/13 05:43:39;;;;;;;3.17;2.80;;;22.70;52.80;;;;;;5013697;28;20855;-66
2021/06/13 05:46:05;;;;;;;2.63;2.40;;;22.70;52.80;;;;;;5014112;28;20861;-66
2021/06/13 05:48:32;;;;;;;2.92;2.63;;;22.70;52.80;;;;;;5014103;28;20399;-65
2021/06/13 05:50:59;;;;;;;2.92;2.63;;;22.70;52.80;;;;;;5014100;28;20404;-65
2021/06/13 05:53:25;;;;;;;3.00;2.55;;;22.70;52.80;;;;;;5013912;28;20933;-65
2021/06/13 05:55:50;;;;;;;2.67;2.47;;;22.70;52.80;;;;;;5012417;28;20484;-65
2021/06/13 05:58:16;;;;;;;2.97;2.70;;;22.70;52.80;;;;;;5013242;28;20500;-65
2021/06/13 06:00:42;;;;;;;2.70;2.50;;;22.70;52.80;;;;;;5013239;28;20393;-65
2021/06/13 06:03:07;;;;;;;2.80;2.50;;;22.70;52.70;;;;;;5013612;28;20820;-65
2021/06/13 06:05:34;;;;;;;3.17;2.88;;;22.70;52.70;;;;;;5013520;28;20396;-65
2021/06/13 06:08:00;;;;;;;3.00;2.70;;;22.70;52.80;;;;;;5013480;28;20409;-65
2021/06/13 06:10:28;;;;;;;3.08;2.60;;;22.70;52.80;;;;;;5012311;28;20734;-65
2021/06/13 06:12:55;;;;;;;3.13;2.83;;;22.70;52.80;;;;;;5012868;28;20856;-65
2021/06/13 06:15:21;;;;;;;2.90;2.60;;;22.70;52.80;;;;;;5013632;28;20389;-69
2021/06/13 06:17:48;;;;;;;2.97;2.67;;;22.70;52.80;;;;;;5011862;28;20400;-65
2021/06/13 06:20:16;;;;;;;3.08;2.78;;;22.70;52.80;;;;;;5013387;28;20424;-65
2021/06/13 06:22:42;;;;;;;2.70;2.50;;;22.70;52.80;;;;;;5012111;28;20492;-65
2021/06/13 06:25:09;;;;;;;2.95;2.65;;;22.70;52.80;;;;;;5013326;28;20398;-65
2021/06/13 06:27:36;;;;;;;2.95;2.50;;;22.70;52.70;;;;;;5013228;28;20397;-65
2021/06/13 06:30:04;;;;;;;2.50;2.30;;;22.70;52.80;;;;;;5011935;28;20401;-65
2021/06/13 06:32:29;;;;;;;6.45;3.28;;;22.70;52.70;;;;;;5013236;28;20880;-65
2021/06/13 06:34:55;;;;;;;5.53;2.95;;;22.60;52.60;;;;;;5013244;28;20397;-64
2021/06/13 06:37:20;;;;;;;9.23;3.13;;;22.70;52.80;;;;;;5012357;28;20415;-65
2021/06/13 06:39:46;;;;;;;6.03;3.20;;;22.70;52.80;;;;;;5011344;28;20400;-64
2021/06/13 06:42:12;;;;;;;5.35;2.75;;;22.70;52.70;;;;;;5012126;28;20477;-65
2021/06/13 06:44:37;;;;;;;5.10;2.80;;;22.70;52.70;;;;;;5011521;28;20431;-65
2021/06/13 06:47:03;;;;;;;4.88;2.90;;;22.70;52.70;;;;;;5011582;28;20407;-65
2021/06/13 06:49:30;;;;;;;4.50;2.70;;;22.70;52.60;;;;;;5011274;28;20392;-64
2021/06/13 06:51:56;;;;;;;3.47;2.67;;;22.70;52.60;;;;;;5011300;28;20408;-65
2021/06/13 06:54:22;;;;;;;3.15;2.50;;;22.70;52.50;;;;;;5011338;28;20401;-64
2021/06/13 06:56:47;;;;;;;5.07;2.40;;;22.70;52.50;;;;;;5026627;28;20392;-65
2021/06/13 06:59:13;;;;;;;3.80;2.43;;;22.70;52.60;;;;;;5011359;28;20435;-65
2021/06/13 07:01:39;;;;;;;3.80;2.50;;;22.70;52.60;;;;;;5011095;28;20773;-65
2021/06/13 07:04:05;;;;;;;3.45;2.53;;;22.70;52.50;;;;;;5010971;28;20408;-64
2021/06/13 07:06:31;;;;;;;3.10;2.40;;;22.70;52.60;;;;;;5011285;28;20492;-64
2021/06/13 07:08:57;;;;;;;2.80;2.40;;;22.70;52.50;;;;;;5009949;28;20416;-65
2021/06/13 07:11:22;;;;;;;2.80;2.50;;;22.70;52.50;;;;;;5011132;28;20432;-65
2021/06/13 07:13:49;;;;;;;4.20;2.67;;;22.70;52.50;;;;;;5009191;28;20408;-65
2021/06/13 07:16:14;;;;;;;5.23;2.60;;;22.70;52.50;;;;;;5025816;28;20416;-65
2021/06/13 07:18:40;;;;;;;4.07;2.30;;;22.70;52.50;;;;;;5009711;28;20385;-65
2021/06/13 07:21:06;;;;;;;3.70;2.67;;;22.70;52.50;;;;;;5009682;28;20511;-65
2021/06/13 07:23:32;;;;;;;5.17;2.80;;;22.70;52.40;;;;;;5010635;28;20424;-65
2021/06/13 07:25:58;;;;;;;5.27;2.70;;;22.70;52.40;;;;;;5010505;28;20396;-65
2021/06/13 07:28:23;;;;;;;4.00;2.80;;;22.80;52.30;;;;;;5008907;28;20401;-65
2021/06/13 07:30:49;;;;;;;3.70;2.47;;;22.70;52.20;;;;;;5010935;28;20487;-65
2021/06/13 07:33:15;;;;;;;3.83;2.50;;;22.80;52.20;;;;;;5010734;28;21015;-64
2021/06/13 07:35:41;;;;;;;3.83;2.40;;;22.70;52.20;;;;;;5010704;28;20393;-65
2021/06/13 07:38:07;;;;;;;3.35;2.60;;;22.80;52.20;;;;;;5010428;28;20420;-65
2021/06/13 07:40:33;;;;;;;3.63;2.40;;;22.80;52.20;;;;;;5010864;28;20393;-65
2021/06/13 07:43:00;;;;;;;3.28;2.53;;;22.80;52.20;;;;;;5010568;28;20421;-65
2021/06/13 07:45:26;;;;;;;2.80;2.40;;;22.80;52.30;;;;;;5010395;28;20409;-65
2021/06/13 07:47:52;;;;;;;2.92;2.63;;;22.80;52.20;;;;;;5010287;28;20532;-64
2021/06/13 07:50:20;;;;;;;2.92;2.63;;;22.80;52.20;;;;;;5010696;28;20407;-65
2021/06/13 07:52:47;;;;;;;3.00;2.47;;;22.80;52.20;;;;;;5010749;28;20496;-65
2021/06/13 07:55:15;;;;;;;2.80;2.30;;;22.80;52.20;;;;;;5010450;28;20396;-65
2021/06/13 07:57:45;;;;;;;3.00;2.30;;;22.80;52.20;;;;;;5010290;28;20385;-65
2021/06/13 08:00:13;;;;;;;2.88;2.30;;;22.80;52.10;;;;;;5010296;28;20404;-65
2021/06/13 08:02:41;;;;;;;3.13;2.42;;;22.80;52.10;;;;;;5009091;28;20466;-65
2021/06/13 08:05:10;;;;;;;2.40;2.00;;;22.80;52.20;;;;;;5010414;28;20397;-64
2021/06/13 08:07:36;;;;;;;2.38;2.17;;;22.80;52.20;;;;;;5010149;28;20495;-65
2021/06/13 08:10:04;;;;;;;2.47;2.13;;;22.80;52.10;;;;;;5010140;28;20790;-65
2021/06/13 08:12:29;;;;;;;2.70;2.20;;;22.80;52.00;;;;;;5010096;28;20463;-65
2021/06/13 08:14:55;;;;;;;2.58;2.10;;;22.80;52.00;;;;;;5009815;28;20469;-65
2021/06/13 08:17:21;;;;;;;2.60;2.20;;;22.80;52.10;;;;;;5010298;28;20385;-65
2021/06/13 08:19:47;;;;;;;2.80;2.00;;;22.80;51.90;;;;;;5010144;28;20439;-65
2021/06/13 08:22:12;;;;;;;2.80;2.10;;;22.90;52.00;;;;;;5010122;28;20960;-65
2021/06/13 08:24:38;;;;;;;2.70;2.20;;;22.80;52.00;;;;;;5011957;28;20506;-65
2021/06/13 08:27:07;;;;;;;2.65;2.30;;;22.80;51.90;;;;;;5014241;28;20385;-65
2021/06/13 08:29:33;;;;;;;3.42;2.30;;;22.90;51.90;;;;;;5013499;28;20399;-65
2021/06/13 08:31:59;;;;;;;2.75;2.28;;;22.90;51.90;;;;;;5013573;28;20412;-64
2021/06/13 08:34:25;;;;;;;3.03;2.27;;;22.90;51.90;;;;;;5029228;28;20792;-64
2021/06/13 08:36:52;;;;;;;2.60;2.13;;;22.90;52.10;;;;;;5012940;28;20442;-64
2021/06/13 08:39:17;;;;;;;2.90;2.22;;;22.90;51.90;;;;;;5013943;28;20459;-65
2021/06/13 08:41:43;;;;;;;3.07;2.20;;;22.90;51.90;;;;;;5012334;28;20793;-64
2021/06/13 08:44:09;;;;;;;4.82;2.42;;;22.90;51.90;;;;;;5012105;28;20428;-64
2021/06/13 08:46:37;;;;;;;4.55;2.40;;;22.90;51.90;;;;;;5012689;28;20431;-64
2021/06/13 08:49:03;;;;;;;3.58;2.40;;;22.90;51.90;;;;;;5013692;28;20401;-65
2021/06/13 08:51:29;;;;;;;5.20;2.40;;;22.90;51.90;;;;;;5013765;28;20504;-64
2021/06/13 08:53:54;;;;;;;3.65;2.40;;;22.90;51.90;;;;;;5013206;28;20405;-65
2021/06/13 08:56:22;;;;;;;2.30;2.00;;;22.90;51.90;;;;;;5014230;28;20393;-65
2021/06/13 08:58:49;;;;;;;2.78;2.40;;;22.90;51.90;;;;;;5015084;28;20435;-65
2021/06/13 09:01:15;;;;;;;2.73;2.30;;;22.90;51.80;;;;;;5014836;28;20384;-65
2021/06/13 09:03:44;;;;;;;2.60;2.30;;;22.90;51.80;;;;;;5014845;28;20413;-65
2021/06/13 09:06:11;;;;;;;2.50;2.17;;;22.90;51.80;;;;;;5014500;28;20419;-65
2021/06/13 09:08:39;;;;;;;2.67;2.30;;;22.90;51.80;;;;;;5014849;28;20880;-65
2021/06/13 09:11:07;;;;;;;3.15;2.53;;;23.00;51.80;;;;;;5014669;28;20415;-65
2021/06/13 09:13:34;;;;;;;3.00;2.30;;;22.90;51.80;;;;;;5014609;28;20439;-65
2021/06/13 09:16:03;;;;;;;3.15;2.60;;;23.00;51.80;;;;;;5014152;28;20425;-64
2021/06/13 09:18:41;;;;;;;3.30;2.50;;;22.90;51.80;;;;;;5014671;28;20420;-65
2021/06/13 09:21:06;;;;;;;3.22;2.42;;;23.00;51.80;;;;;;5014501;28;20793;-64
2021/06/13 09:23:34;;;;;;;3.43;2.40;;;23.00;51.80;;;;;;5014512;28;20424;-64
2021/06/13 09:26:04;;;;;;;2.75;2.40;;;23.00;51.80;;;;;;5013994;28;20920;-65
2021/06/13 09:28:41;;;;;;;3.10;2.40;;;23.00;51.70;;;;;;5014462;28;20522;-64
2021/06/13 09:31:20;;;;;;;2.70;2.28;;;23.00;51.80;;;;;;5014230;28;20389;-65
2021/06/13 09:33:49;;;;;;;2.80;2.20;;;23.00;51.80;;;;;;5014247;28;20440;-65
2021/06/13 09:36:29;;;;;;;2.90;2.40;;;23.00;51.70;;;;;;5012048;28;20388;-64
2021/06/13 09:39:05;;;;;;;3.35;2.38;;;23.00;51.70;;;;;;5014287;28;20893;-65
2021/06/13 09:41:39;;;;;;;3.47;2.25;;;23.00;51.80;;;;;;5014188;28;20808;-64
2021/06/13 09:44:15;;;;;;;3.22;2.33;;;23.00;51.70;;;;;;5013033;28;20439;-65
2021/06/13 09:46:43;;;;;;;2.38;2.10;;;23.00;51.70;;;;;;5014094;28;20388;-65
2021/06/13 09:49:11;;;;;;;3.10;2.08;;;23.00;51.70;;;;;;5013973;28;20412;-64
2021/06/13 09:51:45;;;;;;;2.70;2.15;;;23.00;51.70;;;;;;5014276;28;20472;-70
2021/06/13 09:54:18;;;;;;;2.50;2.20;;;23.00;51.70;;;;;;5012424;28;20403;-65
2021/06/13 09:56:44;;;;;;;2.25;2.00;;;23.00;51.70;;;;;;5013986;28;20377;-65
2021/06/13 09:59:11;;;;;;;2.20;2.00;;;23.00;51.60;;;;;;5013492;28;20397;-64
2021/06/13 10:01:50;;;;;;;2.65;2.15;;;23.00;51.70;;;;;;5013094;28;20388;-65
2021/06/13 10:04:19;;;;;;;2.58;2.17;;;23.00;51.60;;;;;;5013411;28;20448;-65
2021/06/13 10:06:47;;;;;;;2.78;2.05;;;23.00;51.70;;;;;;5013701;28;20389;-65
2021/06/13 10:09:14;;;;;;;2.60;2.20;;;23.00;51.70;;;;;;5013160;28;20911;-69
2021/06/13 10:11:43;;;;;;;3.25;2.08;;;23.00;51.50;;;;;;5013344;28;20444;-65
2021/06/13 10:14:11;;;;;;;3.75;2.28;;;23.00;51.50;;;;;;5013131;28;20952;-69
2021/06/13 10:16:38;;;;;;;4.47;2.40;;;23.00;51.50;;;;;;5013719;28;20479;-65
2021/06/13 10:19:14;;;;;;;2.83;2.30;;;23.00;51.50;;;;;;5013484;28;20429;-64
2021/06/13 10:21:44;;;;;;;3.38;2.28;;;23.00;51.40;;;;;;5013359;28;20385;-65
2021/06/13 10:24:15;;;;;;;2.80;2.17;;;23.00;51.60;;;;;;5012994;28;20423;-65
2021/06/13 10:26:47;;;;;;;2.55;2.20;;;23.00;51.60;;;;;;5013429;28;20389;-65
2021/06/13 10:29:14;;;;;;;6.63;2.30;;;23.00;51.60;;;;;;5013241;28;20381;-65
2021/06/13 10:31:42;;;;;;;3.40;2.33;;;23.00;51.80;;;;;;5013270;28;20431;-65
2021/06/13 10:34:08;;;;;;;3.17;2.55;;;23.00;51.70;;;;;;5012920;28;20396;-64
2021/06/13 10:36:36;;;;;;;4.30;2.47;;;23.00;51.70;;;;;;5011934;28;20509;-63
2021/06/13 10:39:05;;;;;;;4.45;2.53;;;23.00;51.70;;;;;;5013169;28;20401;-64
2021/06/13 10:41:30;;;;;;;3.53;2.40;;;23.10;51.70;;;;;;5013118;28;20442;-64
2021/06/13 10:44:29;;;;;;;4.35;2.45;;;23.00;51.70;;;;;;5012377;28;20424;-65
2021/06/13 10:46:58;;;;;;;4.53;2.40;;;23.10;51.80;;;;;;5007905;28;20750;-64
2021/06/13 10:49:35;;;;;;;11.57;2.75;;;23.10;52.00;;;;;;5012925;28;20389;-65
2021/06/13 10:52:03;;;;;;;7.32;2.60;;;23.10;52.10;;;;;;5012399;28;20401;-64
2021/06/13 10:54:49;;;;;;;5.53;2.50;;;23.20;52.80;;;;;;5011271;28;20466;-65
2021/06/13 10:57:14;;;;;;;4.07;2.40;;;23.30;53.10;;;;;;5011946;28;20480;-64
2021/06/13 10:59:42;;;;;;;5.00;2.80;;;23.40;53.10;;;;;;5012059;28;20472;-66
2021/06/13 11:02:13;;;;;;;8.88;2.90;;;23.40;53.10;;;;;;5011230;28;20384;-65
2021/06/13 11:04:42;;;;;;;4.97;2.53;;;23.50;54.40;;;;;;5027554;28;20925;-65
2021/06/13 11:07:08;;;;;;;4.00;2.70;;;23.50;52.70;;;;;;5012439;28;20912;-65
2021/06/13 11:10:24;;;;;;;6.07;2.70;;;23.60;52.50;;;;;;5012477;28;20389;-65
2021/06/13 11:13:03;;;;;;;4.18;2.60;;;23.60;52.20;;;;;;5011922;28;20397;-65
2021/06/13 11:15:32;;;;;;;5.60;2.90;;;23.60;52.50;;;;;;5011906;28;20504;-65
2021/06/13 11:18:04;;;;;;;7.15;3.20;;;23.70;52.40;;;;;;5011561;28;20722;-65
2021/06/13 11:22:57;;;;;;;5.93;3.25;;;23.80;52.40;;;;;;5012365;28;20917;-66
2021/06/13 11:25:26;;;;;;;3.83;3.20;;;23.90;52.20;;;;;;5027246;28;20527;-65
2021/06/13 11:28:10;;;;;;;4.80;3.30;;;23.90;52.20;;;;;;5027076;28;20621;-65
2021/06/13 11:30:40;;;;;;;4.40;3.63;;;24.00;52.20;;;;;;5011527;28;20400;-64
2021/06/13 11:33:06;;;;;;;5.60;3.50;;;24.10;52.20;;;;;;5012048;28;20446;-65
2021/06/13 11:35:35;;;;;;;7.40;3.97;;;24.10;52.40;;;;;;5012108;28;20393;-65
2021/06/13 11:38:12;;;;;;;4.20;3.60;;;24.30;52.30;;;;;;5026867;28;20424;-64
2021/06/13 11:40:47;;;;;;;4.55;3.40;;;24.60;51.20;;;;;;5012100;28;20385;-65
2021/06/13 11:43:16;;;;;;;4.18;3.17;;;25.00;50.50;;;;;;5011897;28;20900;-65
2021/06/13 11:46:04;;;;;;;5.28;3.30;;;24.90;50.20;;;;;;5011878;28;20449;-65
2021/06/13 11:48:32;;;;;;;3.65;3.03;;;24.90;50.30;;;;;;5012035;28;20471;-65
2021/06/13 11:51:09;;;;;;;3.60;2.95;;;24.70;50.40;;;;;;5011819;28;20403;-65
2021/06/13 11:54:06;;;;;;;5.22;2.90;;;24.60;50.60;;;;;;5010646;28;20389;-65
2021/06/13 11:56:35;;;;;;;5.03;3.15;;;24.50;50.60;;;;;;5011837;28;20393;-65
2021/06/13 11:59:08;;;;;;;3.40;2.83;;;24.40;50.60;;;;;;5011358;28;20399;-65
2021/06/13 12:01:36;;;;;;;4.63;2.60;;;24.30;50.60;;;;;;5011823;28;20478;-65
2021/06/13 12:04:22;;;;;;;5.32;2.70;;;24.30;50.60;;;;;;5011184;28;20451;-65
2021/06/13 12:06:48;;;;;;;8.67;2.70;;;24.20;50.50;;;;;;5012072;28;20389;-65
2021/06/13 12:09:16;;;;;;;4.18;2.53;;;24.20;50.50;;;;;;5010293;28;20893;-65
2021/06/13 12:11:50;;;;;;;3.80;2.38;;;24.30;51.10;;;;;;5011484;28;20389;-65
2021/06/13 12:14:41;;;;;;;5.55;2.30;;;24.20;50.70;;;;;;5011140;28;20443;-65
2021/06/13 12:17:20;;;;;;;3.92;2.35;;;24.20;50.60;;;;;;5011643;28;20424;-65
2021/06/13 12:19:50;;;;;;;2.80;2.10;;;24.20;50.40;;;;;;5011525;28;20392;-65
2021/06/13 12:22:17;;;;;;;3.50;2.20;;;24.20;50.20;;;;;;5009991;28;20440;-65
2021/06/13 12:27:27;;;;;;;3.25;2.25;;;24.10;49.80;;;;;;5011539;28;20474;-66
2021/06/13 12:29:55;;;;;;;4.10;2.10;;;24.10;49.30;;;;;;5011249;28;20404;-68
2021/06/13 12:32:21;;;;;;;3.90;2.08;;;24.10;49.60;;;;;;5010669;28;20389;-66
2021/06/13 12:34:53;;;;;;;3.17;2.00;;;24.10;49.60;;;;;;5011223;28;20397;-66
2021/06/13 12:37:23;;;;;;;3.72;2.00;;;24.10;49.30;;;;;;5010804;28;20483;-69
2021/06/13 12:40:10;;;;;;;2.58;2.00;;;24.10;49.30;;;;;;5010763;28;20886;-66
2021/06/13 12:42:37;;;;;;;3.03;1.88;;;24.10;49.20;;;;;;5010857;28;20427;-66
2021/06/13 12:45:07;;;;;;;3.23;2.07;;;24.10;49.30;;;;;;5010996;28;20487;-65
2021/06/13 12:47:33;;;;;;;2.93;2.10;;;24.00;49.30;;;;;;5011278;28;20442;-65
2021/06/13 12:50:00;;;;;;;3.65;1.98;;;24.10;49.40;;;;;;5010992;28;20403;-66
2021/06/13 12:52:26;;;;;;;3.60;2.22;;;24.10;49.40;;;;;;5010664;28;20400;-66
2021/06/13 12:55:07;;;;;;;4.00;2.30;;;24.10;49.30;;;;;;5010263;28;20875;-66
2021/06/13 12:57:34;;;;;;;3.72;2.00;;;24.10;49.30;;;;;;5010734;28;20421;-65
2021/06/13 13:00:01;;;;;;;2.50;1.80;;;24.10;49.10;;;;;;5010848;28;20400;-65
2021/06/13 13:02:27;;;;;;;3.72;1.90;;;24.10;49.70;;;;;;5010193;28;20397;-66